Plymouth Peak Pro Challenge - Loft Flying

Station: INVENTORY - T Race

Distance: 10 Miles    

Release: 04-Jun-2018 10:00

Weather Release:    Arrival:

Wind at Release:     Wind at Arrival:

Temp at Release: °    Temp at Arrival: °

Lofts: 122

Birds: 661

Clocked: 649

Good Luck to Everyone!
Drops Pos Breeder Pigeon Name Color Sex Ent Arrival Speed To Win Eligible AOC
601 A P C Loft - TX 18144-AU18-APC BBPN H 14 10:54:26.60 323.272 00:21:25 Yes
602 S & M Loft - Eden Loft - ID 6917-AU18-AA BB H 14 10:54:28.20 323.114 00:21:27 Yes
603 Poorhouse Road Loft - VA 56014-AU18-ARPU BCTC H 9 10:54:28.60 323.074 00:21:27 Yes
604 Eastern Pearl Loft - VA 0365-AU18-EPL 🈚️量 365 BBSM H 7 10:54:34.50 322.492 00:21:33 Yes
605 V & G Loft - UT 1499-AU18-HARM Constable RCTC H 4 10:54:36.90 322.256 00:21:35 Yes
606 Marengo Creek Farms - AL 2940-AU18-MCF BB H 8 10:54:38.00 322.148 00:21:36 Yes
607 Aimhigh Loft - CA 0130-AU18-FMT Aim-26486/153 LTBC H 3 10:54:44.70 321.491 00:21:43 Yes
608 Pyrate/Dracula - MA 0157-AU18-FR Schmeig BBWF C 2 10:54:49.90 320.982 00:21:48 Yes
609 Boyle Loft - UT 1812-AU18-WGS BB C 1 10:54:51.00 320.875 00:21:50 Yes
610 Gold Country Challenge - CA 0029-AU18-HANG BBWF H 6 10:54:54.70 320.515 00:21:53 Yes
611 Vincent Rooney - VA 8047-IF18-SEA BBSM C 5 10:54:56.10 320.379 00:21:55 Yes
612 Bluemountain Olr - PA 0887-IF18-FSJ BCWF C 4 10:55:00.50 319.952 00:21:59 Yes
613 Crazy Als Lofts - CO 5203-AU18-CRAZ DC H 6 10:55:01.00 319.903 00:22:00 Yes
614 Tony Sorrentino - NJ 0618-AU18-ATS BCSM H 4 10:55:03.20 319.690 00:22:02 Yes
615 Tony Sorrentino - NJ 0615-AU18-ATS BB H 5 10:55:05.80 319.439 00:22:04 Yes
616 S & M Loft - Eden Loft - ID 6904-AU18-AA GRIZ C 15 10:55:09.50 319.081 00:22:08 Yes
617 Nemelka Racing Pigeon Loft - UT 8034-AU18-NRPL 1096 X 5029 BC C 8 10:55:12.30 318.812 00:22:11 Yes
618 V & G Loft - UT 1822-AU18-GRAY Deputy Sky BCWF C 5 10:55:12.70 318.773 00:22:11 Yes
619 Royers Loft - UT 0124-AU18-SLI BC H 3 10:55:20.30 318.044 00:22:19 Yes
620 Rocky Mountain Racing - UT 18316-AU18-RMR Christmas Chear BBSP H 10 10:55:23.90 317.699 00:22:22 Yes
621 Vincent Rooney - VA 8037-IF18-SEA BCSM C 6 10:55:33.40 316.794 00:22:32 Yes
622 Mile High - CO 2324-AU18-AA BB H 9 10:55:36.50 316.499 00:22:35 Yes
623 Heritage Loft - UT 17662-AU18-ARPU BC H 7 10:55:46.50 315.554 00:22:45 Yes
624 V & G Loft - UT 1452-AU18-HARM Children's Hour BC H 6 10:55:51.00 315.130 00:22:49 Yes
625 Rory Smith - UT 8414-AU18-CDR H 8 10:56:08.90 313.455 00:23:07 Yes
626 Catherine And Geoff Cooper - BA 0548-AU18-RIXE BB C 3 10:56:26.10 311.863 00:23:25 Yes
627 Liu Loft - NC 0871-AU18-KVLI BBSM H 10 10:56:49.90 309.687 00:23:48 Yes
628 Don Hart - FL 4864-AU18-GHC BBTC H 2 10:57:12.20 307.674 00:24:11 Yes
629 Bluemountain Olr - PA 0837-IF18-FSJ DCTC H 5 10:57:24.80 306.549 00:24:23 Yes
630 Rick Barker - CA 0272-AU18-VIP BB C 2 10:57:30.20 306.069 00:24:29 Yes
631 Blue - Face - CA 1905-AU18-FVC BB C 2 10:57:38.50 305.335 00:24:37 Yes
632 Baldwin & Tilson - NC 8106-AU18-TENT BBTC H 13 10:58:24.50 301.327 00:25:23 Yes
633 Marengo Creek Farms - AL 2915-AU18-MCF BB H 9 10:58:25.70 301.224 00:25:24 Yes
634 Eduardo Torres - TX 49930-AU18-ARPU BC H 3 10:58:37.20 300.239 00:25:36 Yes
635 Tex-Mex Loft - TX 0179-AU18-TEX Willy Wonka DNC C 6 11:01:15.70 287.292 00:28:14 Yes
636 - 0471-AU18-NA 4 11:09:14.60 254.176 00:36:13
637 Jones Boys - UT 0423-AU18-SLI BC H 5 11:10:19.90 250.243 00:37:18 Yes
638 S & M Loft - Eden Loft - ID 6931-AU18-AA BB H 16 11:11:09.30 247.347 00:38:08 Yes
639 Alan Porter - WI 0492-AU18-RRR BB H 6 11:11:37.40 245.730 00:38:36 Yes
640 Skyraider - WA 8212-AU18-TCW BB H 3 11:12:25.20 243.027 00:39:24 Yes
641 Thunder Birds/Rodriguez Breeding Loft - TX 18815-AU18-ARPU BB H 5 11:13:00.70 241.057 00:39:59 Yes
642 Mc Cormick Loft - CA 0219-AU18-HANG DC C 2 11:13:41.00 238.860 00:40:40 Yes
643 Highland Loft - NY 18081-AU18-DZ BC H 7 11:15:06.80 234.313 00:42:05 Yes
644 Eduardo Torres - TX 49821-AU18-ARPU PEN C 4 12:03:39.40 142.330 01:30:38 Yes
645 Racing Pigeon Mall - WA 0813-AU18-RPM BLK C 5 13:48:57.40 76.870 03:15:56 Yes
646 Shewmaker.Com - CA 8057-AU18-SHEW BCWF H 4 14:57:51.40 59.089 04:24:50 Yes
647 Alan Porter - WI 0493-AU18-RRR BB H 7 18:44:46.90 33.538 08:11:45 Yes
648 Heritage Loft - UT 17524-AU18-ARPU BBTC H 8 20:26:08.70 28.109 09:53:07 Yes
649 P N W Challenge - ID 0108-AU18-PNWC Pair#2 BBWF C 5 2018-06-05 07:54:02.40 20.877 13:30:00 Yes

There are 661 bird records

Note: These Race Results are unofficial and subject to change until verified by the Race Committee and declared final.